createdAt,value
2023-02-04T00:02:35.638Z,1.20
2023-02-04T00:05:21.787Z,1.77
2023-02-04T00:08:06.996Z,1.75
2023-02-04T00:10:52.484Z,1.95
2023-02-04T00:13:37.912Z,1.90
2023-02-04T00:16:23.024Z,1.60
2023-02-04T00:19:08.423Z,1.67
2023-02-04T00:21:53.900Z,1.67
2023-02-04T00:24:39.716Z,1.70
2023-02-04T00:27:24.904Z,1.80
2023-02-04T00:30:10.683Z,1.63
2023-02-04T00:32:56.575Z,1.63
2023-02-04T00:35:41.821Z,1.85
2023-02-04T00:38:27.499Z,1.60
2023-02-04T00:41:12.677Z,1.90
2023-02-04T00:43:57.839Z,1.73
2023-02-04T00:46:43.238Z,2.10
2023-02-04T00:49:28.754Z,1.42
2023-02-04T00:52:15.185Z,1.52
2023-02-04T00:55:00.564Z,1.20
2023-02-04T00:57:49.529Z,1.88
2023-02-04T01:00:35.177Z,0.95
2023-02-04T01:03:20.442Z,1.38
2023-02-04T01:06:06.561Z,1.90
2023-02-04T01:08:53.198Z,1.63
2023-02-04T01:11:38.225Z,1.40
2023-02-04T01:14:23.635Z,1.45
2023-02-04T01:17:08.574Z,1.23
2023-02-04T01:19:54.133Z,1.58
2023-02-04T01:22:39.566Z,1.65
2023-02-04T01:25:27.452Z,1.33
2023-02-04T01:28:13.828Z,1.38
2023-02-04T01:30:59.191Z,1.40
2023-02-04T01:33:44.549Z,1.17
2023-02-04T01:36:30.220Z,1.33
2023-02-04T01:39:15.960Z,1.52
2023-02-04T01:42:01.532Z,1.38
2023-02-04T01:44:47.053Z,1.40
2023-02-04T01:47:33.142Z,1.50
2023-02-04T01:50:18.704Z,1.70
2023-02-04T01:53:04.233Z,1.17
2023-02-04T01:55:51.834Z,1.50
2023-02-04T01:58:37.108Z,1.20
2023-02-04T02:01:49.532Z,1.42
2023-02-04T02:04:35.913Z,1.23
2023-02-04T02:07:21.347Z,1.45
2023-02-04T02:10:09.149Z,1.30
2023-02-04T02:12:55.694Z,1.15
2023-02-04T02:15:41.999Z,1.38
2023-02-04T02:18:27.242Z,1.50
2023-02-04T02:21:14.849Z,1.20
2023-02-04T02:24:03.042Z,1.40
2023-02-04T02:26:48.442Z,1.52
2023-02-04T02:29:34.321Z,1.30
2023-02-04T02:32:20.245Z,1.20
2023-02-04T02:35:06.376Z,1.20
2023-02-04T02:37:51.847Z,1.80
2023-02-04T02:40:38.318Z,1.55
2023-02-04T02:43:26.916Z,1.30
2023-02-04T02:46:12.304Z,1.25
2023-02-04T02:48:57.900Z,1.50
2023-02-04T02:51:44.288Z,1.30
2023-02-04T02:54:31.831Z,1.55
2023-02-04T02:57:22.805Z,1.27
2023-02-04T03:00:41.047Z,1.60
2023-02-04T03:03:31.353Z,0.98
2023-02-04T03:06:22.264Z,1.45
2023-02-04T03:09:07.745Z,1.10
2023-02-04T03:11:53.774Z,1.88
2023-02-04T03:14:39.359Z,1.33
2023-02-04T03:17:24.498Z,1.13
2023-02-04T03:20:10.329Z,1.20
2023-02-04T03:22:56.853Z,1.23
2023-02-04T03:25:43.364Z,1.20
2023-02-04T03:28:30.243Z,1.02
2023-02-04T03:31:15.551Z,1.08
2023-02-04T03:34:00.830Z,1.27
2023-02-04T03:36:46.965Z,1.25
2023-02-04T03:39:32.255Z,1.10
2023-02-04T03:42:17.940Z,1.10
2023-02-04T03:45:03.086Z,1.33
2023-02-04T03:47:48.267Z,1.20
2023-02-04T03:50:33.920Z,0.98
2023-02-04T03:53:19.389Z,1.52
2023-02-04T03:56:05.201Z,1.42
2023-02-04T03:58:50.453Z,1.10
2023-02-04T04:01:35.827Z,0.90
2023-02-04T04:04:21.052Z,1.33
2023-02-04T04:07:06.934Z,1.55
2023-02-04T04:09:52.327Z,1.10
2023-02-04T04:12:37.429Z,1.30
2023-02-04T04:15:22.776Z,0.88
2023-02-04T04:18:08.037Z,0.95
2023-02-04T04:20:53.166Z,1.27
2023-02-04T04:23:38.542Z,1.10
2023-02-04T04:26:24.126Z,1.00
2023-02-04T04:29:09.386Z,1.23
2023-02-04T04:31:54.635Z,1.05
2023-02-04T04:34:39.986Z,1.60
2023-02-04T04:37:25.024Z,0.95
2023-02-04T04:40:12.244Z,0.95
2023-02-04T04:42:57.458Z,1.00
2023-02-04T04:45:42.643Z,1.15
2023-02-04T04:48:28.165Z,1.30
2023-02-04T04:51:13.255Z,1.30
2023-02-04T04:53:59.888Z,1.27
2023-02-04T04:56:45.073Z,1.10
2023-02-04T04:59:30.386Z,1.20
2023-02-04T05:02:15.838Z,1.20
2023-02-04T05:05:01.299Z,1.30
2023-02-04T05:07:46.747Z,1.20
2023-02-04T05:10:32.400Z,1.20
2023-02-04T05:13:17.617Z,0.82
2023-02-04T05:16:03.175Z,1.20
2023-02-04T05:18:48.378Z,1.10
2023-02-04T05:21:33.605Z,1.20
2023-02-04T05:24:19.069Z,1.10
2023-02-04T05:27:04.293Z,1.10
2023-02-04T05:29:49.507Z,1.00
2023-02-04T05:32:34.890Z,1.40
2023-02-04T05:35:20.481Z,1.33
2023-02-04T05:38:05.791Z,1.30
2023-02-04T05:40:50.985Z,1.35
2023-02-04T05:43:36.269Z,1.20
2023-02-04T05:46:21.618Z,1.23
2023-02-04T05:49:08.166Z,1.50
2023-02-04T05:51:53.238Z,1.08
2023-02-04T05:54:38.699Z,1.02
2023-02-04T05:57:23.892Z,1.40
2023-02-04T06:00:11.421Z,1.10
2023-02-04T06:02:59.531Z,1.20
2023-02-04T06:05:44.908Z,1.40
2023-02-04T06:08:30.018Z,1.73
2023-02-04T06:11:15.274Z,1.30
2023-02-04T06:14:00.579Z,1.13
2023-02-04T06:16:46.169Z,1.10
2023-02-04T06:19:31.394Z,1.15
2023-02-04T06:22:17.373Z,1.50
2023-02-04T06:25:02.561Z,1.50
2023-02-04T06:27:48.264Z,1.23
2023-02-04T06:30:33.900Z,1.60
2023-02-04T06:33:21.243Z,1.50
2023-02-04T06:36:06.607Z,1.10
2023-02-04T06:38:52.021Z,1.30
2023-02-04T06:41:37.354Z,1.65
2023-02-04T06:44:22.645Z,1.35
2023-02-04T06:47:08.118Z,2.03
2023-02-04T06:49:53.185Z,1.30
2023-02-04T06:52:38.717Z,1.70
2023-02-04T06:55:24.160Z,1.60
2023-02-04T06:58:09.651Z,1.48
2023-02-04T07:00:55.081Z,1.42
2023-02-04T07:03:40.180Z,1.50
2023-02-04T07:06:25.660Z,1.50
2023-02-04T07:09:10.822Z,1.52
2023-02-04T07:11:56.197Z,1.40
2023-02-04T07:14:41.498Z,1.10
2023-02-04T07:17:26.866Z,1.52
2023-02-04T07:20:12.669Z,1.52
2023-02-04T07:22:58.083Z,1.80
2023-02-04T07:25:44.151Z,1.73
2023-02-04T07:28:29.335Z,1.30
2023-02-04T07:31:15.541Z,1.50
2023-02-04T07:34:00.985Z,1.67
2023-02-04T07:36:46.579Z,1.70
2023-02-04T07:39:31.686Z,1.48
2023-02-04T07:42:17.232Z,1.50
2023-02-04T07:45:10.471Z,1.65
2023-02-04T07:47:55.438Z,1.67
2023-02-04T07:50:40.861Z,1.70
2023-02-04T07:53:26.055Z,2.08
2023-02-04T07:56:11.372Z,1.60
2023-02-04T07:58:56.525Z,1.73
2023-02-04T08:01:41.977Z,2.10
2023-02-04T08:04:27.987Z,1.85
2023-02-04T08:07:13.234Z,1.90
2023-02-04T08:09:58.474Z,2.08
2023-02-04T08:12:43.833Z,1.98
2023-02-04T08:15:28.953Z,2.03
2023-02-04T08:18:14.354Z,1.65
2023-02-04T08:21:01.403Z,2.40
2023-02-04T08:23:46.484Z,1.55
2023-02-04T08:26:31.920Z,2.22
2023-02-04T08:29:17.482Z,1.27
2023-02-04T08:32:03.083Z,1.33
2023-02-04T08:34:48.643Z,1.45
2023-02-04T08:37:34.047Z,1.40
2023-02-04T08:40:20.513Z,1.52
2023-02-04T08:43:05.966Z,1.60
2023-02-04T08:45:51.707Z,1.65
2023-02-04T08:48:37.108Z,1.52
2023-02-04T08:51:22.655Z,1.60
2023-02-04T08:54:07.860Z,1.50
2023-02-04T08:56:53.184Z,1.52
2023-02-04T08:59:38.496Z,1.60
2023-02-04T09:02:23.762Z,1.30
2023-02-04T09:05:08.844Z,1.65
2023-02-04T09:07:54.362Z,1.63
2023-02-04T09:10:39.549Z,1.45
2023-02-04T09:13:25.023Z,1.67
2023-02-04T09:16:10.768Z,1.70
2023-02-04T09:18:56.231Z,1.20
2023-02-04T09:21:41.583Z,1.45
2023-02-04T09:24:26.874Z,1.48
2023-02-04T09:27:12.240Z,1.50
2023-02-04T09:29:57.656Z,2.22
2023-02-04T09:32:43.105Z,1.73
2023-02-04T09:35:28.552Z,1.50
2023-02-04T09:38:13.853Z,2.22
2023-02-04T09:41:08.433Z,1.83
2023-02-04T09:43:53.782Z,1.80
2023-02-04T09:46:39.446Z,1.77
2023-02-04T09:49:25.501Z,1.45
2023-02-04T09:52:13.973Z,1.25
2023-02-04T09:55:00.112Z,2.05
2023-02-04T09:57:46.687Z,1.55
2023-02-04T10:00:32.526Z,1.20
2023-02-04T10:03:21.948Z,1.10
2023-02-04T10:06:08.850Z,1.33
2023-02-04T10:08:54.881Z,1.42
2023-02-04T10:11:41.825Z,1.02
2023-02-04T10:14:27.274Z,1.08
2023-02-04T10:17:17.582Z,2.15
2023-02-04T10:20:03.291Z,1.05
2023-02-04T10:22:51.384Z,0.93
2023-02-04T10:25:37.280Z,1.27
2023-02-04T10:28:33.479Z,1.20
2023-02-04T10:31:35.892Z,1.40
2023-02-04T10:34:22.272Z,1.40
2023-02-04T10:37:21.989Z,1.10
2023-02-04T10:40:23.236Z,1.00
2023-02-04T10:43:16.664Z,1.00
2023-02-04T10:46:03.621Z,1.13
2023-02-04T10:48:48.904Z,1.10
2023-02-04T10:51:34.196Z,1.20
2023-02-04T10:54:31.192Z,0.90
2023-02-04T10:57:30.575Z,1.83
2023-02-04T11:00:19.601Z,1.23
2023-02-04T11:03:22.080Z,1.23
2023-02-04T11:06:20.231Z,0.90
2023-02-04T11:09:05.862Z,1.08
2023-02-04T11:11:51.731Z,1.00
2023-02-04T11:14:37.156Z,0.80
2023-02-04T11:17:30.505Z,0.77
2023-02-04T11:20:30.079Z,1.08
2023-02-04T11:23:32.479Z,0.93
2023-02-04T11:26:35.959Z,1.20
2023-02-04T11:29:31.193Z,1.05
2023-02-04T11:32:31.508Z,1.17
2023-02-04T11:35:23.969Z,1.02
2023-02-04T11:38:26.030Z,0.90
2023-02-04T11:41:27.520Z,1.30
2023-02-04T11:44:17.085Z,0.90
2023-02-04T11:47:07.342Z,0.80
2023-02-04T11:49:56.134Z,0.90
2023-02-04T11:52:41.413Z,1.17
2023-02-04T11:55:26.747Z,0.98
2023-02-04T11:58:16.677Z,1.00
2023-02-04T12:01:02.475Z,1.05
2023-02-04T12:03:56.917Z,1.40
2023-02-04T12:06:42.240Z,1.13
2023-02-04T12:09:32.415Z,1.00
2023-02-04T12:12:30.119Z,0.90
2023-02-04T12:15:23.959Z,0.98
2023-02-04T12:18:12.850Z,1.10
2023-02-04T12:21:00.003Z,0.93
2023-02-04T12:23:51.676Z,1.02
2023-02-04T12:26:37.806Z,0.70
2023-02-04T12:29:23.583Z,1.00
2023-02-04T12:32:08.987Z,0.70
2023-02-04T12:34:54.069Z,0.80
2023-02-04T12:37:39.445Z,1.05
2023-02-04T12:40:25.165Z,0.82
2023-02-04T12:43:10.600Z,0.60
2023-02-04T12:45:55.815Z,1.10
2023-02-04T12:48:41.162Z,0.93
2023-02-04T12:51:27.388Z,0.90
2023-02-04T12:54:12.848Z,1.25
2023-02-04T12:57:02.780Z,0.88
2023-02-04T12:59:49.210Z,0.73
2023-02-04T13:02:34.360Z,1.10
2023-02-04T13:05:19.733Z,1.88
2023-02-04T13:08:05.100Z,1.67
2023-02-04T13:10:51.898Z,1.08
2023-02-04T13:13:37.403Z,1.00
2023-02-04T13:16:24.585Z,0.75
2023-02-04T13:19:09.863Z,1.30
2023-02-04T13:21:55.363Z,0.82
2023-02-04T13:24:41.994Z,0.85
2023-02-04T13:27:27.886Z,1.33
2023-02-04T13:30:15.533Z,1.55
2023-02-04T13:33:01.276Z,0.80
2023-02-04T13:35:47.141Z,0.77
2023-02-04T13:38:32.414Z,0.80
2023-02-04T13:41:17.649Z,1.17
2023-02-04T13:44:04.851Z,1.20
2023-02-04T13:46:53.339Z,0.82
2023-02-04T13:49:38.637Z,1.17
2023-02-04T13:52:24.262Z,0.82
2023-02-04T13:55:11.813Z,1.00
2023-02-04T13:58:00.789Z,1.33
2023-02-04T14:00:49.247Z,0.63
2023-02-04T14:03:34.713Z,0.90
2023-02-04T14:06:21.628Z,0.80
2023-02-04T14:09:07.178Z,0.70
2023-02-04T14:11:52.476Z,0.90
2023-02-04T14:14:37.852Z,0.90
2023-02-04T14:17:23.382Z,0.93
2023-02-04T14:20:09.316Z,0.63
2023-02-04T14:22:54.570Z,0.90
2023-02-04T14:25:40.493Z,0.88
2023-02-04T14:28:26.171Z,0.75
2023-02-04T14:31:11.454Z,0.77
2023-02-04T14:33:56.527Z,1.20
2023-02-04T14:36:41.716Z,1.17
2023-02-04T14:39:27.072Z,0.82
2023-02-04T14:42:12.339Z,0.70
2023-02-04T14:44:57.786Z,0.73
2023-02-04T14:47:43.045Z,0.82
2023-02-04T14:50:29.765Z,0.88
2023-02-04T14:53:15.253Z,0.70
2023-02-04T14:56:00.831Z,0.73
2023-02-04T14:58:46.313Z,0.80
2023-02-04T15:01:31.891Z,0.80
2023-02-04T15:04:18.413Z,0.82
2023-02-04T15:07:03.891Z,0.80
2023-02-04T15:09:49.685Z,0.70
2023-02-04T15:12:35.291Z,0.60
2023-02-04T15:15:20.714Z,0.95
2023-02-04T15:18:06.218Z,1.85
2023-02-04T15:20:51.578Z,0.80
2023-02-04T15:23:37.217Z,0.88
2023-02-04T15:26:24.872Z,0.93
2023-02-04T15:29:10.370Z,0.70
2023-02-04T15:31:56.129Z,0.60
2023-02-04T15:34:41.535Z,0.63
2023-02-04T15:37:27.261Z,0.77
2023-02-04T15:40:12.840Z,0.85
2023-02-04T15:42:58.137Z,1.00
2023-02-04T15:45:43.937Z,1.00
2023-02-04T15:48:29.907Z,0.70
2023-02-04T15:51:16.500Z,0.60
2023-02-04T15:54:01.639Z,0.98
2023-02-04T15:56:47.048Z,0.95
2023-02-04T15:59:32.458Z,1.00
2023-02-04T16:02:17.765Z,0.63
2023-02-04T16:05:03.262Z,0.88
2023-02-04T16:07:48.879Z,1.10
2023-02-04T16:10:35.258Z,0.90
2023-02-04T16:13:21.203Z,0.98
2023-02-04T16:16:07.525Z,1.63
2023-02-04T16:18:52.577Z,1.20
2023-02-04T16:21:38.047Z,0.80
2023-02-04T16:24:23.454Z,0.95
2023-02-04T16:27:08.630Z,1.20
2023-02-04T16:29:56.744Z,1.05
2023-02-04T16:32:42.308Z,0.90
2023-02-04T16:35:27.657Z,1.50
2023-02-04T16:38:18.349Z,0.90
2023-02-04T16:41:03.960Z,1.02
2023-02-04T16:43:49.276Z,0.65
2023-02-04T16:46:34.734Z,1.00
2023-02-04T16:49:20.012Z,1.17
2023-02-04T16:52:05.777Z,1.15
2023-02-04T16:54:50.875Z,0.95
2023-02-04T16:57:36.452Z,0.65
2023-02-04T17:00:22.393Z,1.02
2023-02-04T17:03:11.983Z,1.05
2023-02-04T17:08:42.887Z,1.25
2023-02-04T17:11:34.329Z,1.50
2023-02-04T17:14:21.852Z,1.33
2023-02-04T17:17:07.737Z,1.10
2023-02-04T17:19:52.924Z,1.30
2023-02-04T17:22:38.445Z,1.42
2023-02-04T17:25:24.031Z,1.52
2023-02-04T17:28:09.341Z,1.58
2023-02-04T17:30:54.812Z,1.40
2023-02-04T17:33:40.333Z,1.63
2023-02-04T17:36:25.722Z,1.88
2023-02-04T17:39:10.941Z,1.73
2023-02-04T17:41:56.153Z,1.60
2023-02-04T17:44:41.615Z,1.98
2023-02-04T17:47:26.934Z,1.60
2023-02-04T17:50:12.466Z,1.50
2023-02-04T17:52:57.868Z,1.58
2023-02-04T17:55:42.926Z,2.03
2023-02-04T17:58:30.886Z,2.20
2023-02-04T18:01:18.817Z,2.20
2023-02-04T18:04:06.766Z,1.73
2023-02-04T18:06:52.444Z,1.67
2023-02-04T18:09:37.617Z,1.80
2023-02-04T18:12:23.112Z,1.75
2023-02-04T18:15:23.118Z,1.73
2023-02-04T18:18:19.221Z,2.20
2023-02-04T18:21:21.250Z,2.25
2023-02-04T18:24:09.729Z,2.05
2023-02-04T18:26:58.946Z,2.20
2023-02-04T18:29:47.975Z,1.90
2023-02-04T18:32:40.622Z,1.70
2023-02-04T18:35:48.018Z,1.65
2023-02-04T18:38:39.055Z,1.83
2023-02-04T18:41:33.698Z,2.25
2023-02-04T18:44:36.147Z,1.65
2023-02-04T18:47:33.083Z,1.75
2023-02-04T18:50:28.008Z,1.90
2023-02-04T18:53:13.718Z,1.80
2023-02-04T18:56:01.989Z,2.40
2023-02-04T18:58:51.021Z,2.22
2023-02-04T19:01:39.064Z,1.70
2023-02-04T19:04:26.231Z,1.83
2023-02-04T19:07:15.756Z,2.03
2023-02-04T19:12:46.830Z,1.92
2023-02-04T19:15:39.588Z,2.25
2023-02-04T19:18:33.488Z,2.13
2023-02-04T19:21:22.543Z,2.25
2023-02-04T19:24:16.743Z,2.60
2023-02-04T19:27:36.299Z,2.17
2023-02-04T19:30:28.283Z,4.78
2023-02-04T19:33:25.543Z,3.35
2023-02-04T19:36:37.055Z,2.42
2023-02-04T19:39:22.340Z,1.95
